| time (UTC) | temp F | wind direction | speed MPH | gust MPH | rain 1hr in | rain 24hr in | rain mn in | humidity % | barometer mb |
| 20260903222316 | 69 | 160 | 3.0 | 6.0 | 0.00 | 0.00 | 0.00 | 42 | 1018.1 |
| 20260903221414 | 69 | 179 | 4.0 | 7.0 | 0.00 | 0.00 | 0.00 | 42 | 1018.2 |
| 20260903214516 | 69 | 187 | 2.0 | 5.0 | 0.00 | 0.00 | 0.00 | 42 | 1018.2 |
| 20260903213415 | 70 | 247 | 0.0 | 2.0 | 0.00 | 0.00 | 0.00 | 42 | 1018.2 |
| 20260903212416 | 69 | 220 | 2.0 | 5.0 | 0.00 | 0.00 | 0.00 | 41 | 1018.2 |
| 20260903211514 | 69 | 244 | 5.0 | 9.0 | 0.00 | 0.00 | 0.00 | 40 | 1018.2 |
| 20260903210515 | 69 | 162 | 5.0 | 9.0 | 0.00 | 0.00 | 0.00 | 40 | 1018.2 |
| 20260903205515 | 68 | 177 | 1.0 | 5.0 | 0.00 | 0.00 | 0.00 | 40 | 1018.5 |
| 20260903205416 | 68 | 242 | 2.0 | 5.0 | 0.00 | 0.00 | 0.00 | 40 | 1018.3 |
| 20260903204416 | 69 | 268 | 1.0 | 3.0 | 0.00 | 0.00 | 0.00 | 38 | 1018.4 |
| 20260903203515 | 70 | 211 | 3.0 | 6.0 | 0.00 | 0.00 | 0.00 | 38 | 1018.4 |
| 20260903202514 | 70 | 207 | 3.0 | 5.0 | 0.00 | 0.00 | 0.00 | 39 | 1018.5 |
| 20260903201417 | 70 | 202 | 3.0 | 6.0 | 0.00 | 0.00 | 0.00 | 37 | 1018.5 |
| 20260903200415 | 69 | 196 | 3.0 | 5.0 | 0.00 | 0.00 | 0.00 | 38 | 1018.4 |
| 20260903195417 | 69 | 243 | 1.0 | 5.0 | 0.00 | 0.00 | 0.00 | 37 | 1018.4 |
| 20260903194516 | 69 | 239 | 4.0 | 6.0 | 0.00 | 0.00 | 0.00 | 37 | 1018.5 |
| 20260903193516 | 69 | 188 | 1.0 | 5.0 | 0.00 | 0.00 | 0.00 | 39 | 1018.6 |
| 20260903192516 | 69 | 209 | 3.0 | 7.0 | 0.00 | 0.00 | 0.00 | 39 | 1018.6 |
| 20260903191515 | 69 | 181 | 2.0 | 5.0 | 0.00 | 0.00 | 0.00 | 38 | 1018.6 |
| 20260903190514 | 68 | 35 | 0.0 | 1.0 | 0.00 | 0.00 | 0.00 | 39 | 1018.6 |
| 20260903185614 | 68 | 86 | 3.0 | 5.0 | 0.00 | 0.00 | 0.00 | 40 | 1018.9 |
| 20260903184614 | 67 | 88 | 2.0 | 4.0 | 0.00 | 0.00 | 0.00 | 40 | 1019.1 |
| 20260903182615 | 67 | 46 | 3.0 | 6.0 | 0.00 | 0.00 | 0.00 | 41 | 1019.3 |
| 20260903181633 | 65 | 56 | 3.0 | 6.0 | 0.00 | 0.00 | 0.00 | 42 | 1019.3 |
| 20260903180616 | 66 | 56 | 3.0 | 4.0 | 0.00 | 0.00 | 0.00 | 40 | 1019.3 |
| 20260903175715 | 66 | 360 | 0.0 | 1.0 | 0.00 | 0.00 | 0.00 | 39 | 1019.2 |
| 20260903174717 | 65 | 116 | 2.0 | 6.0 | 0.00 | 0.00 | 0.00 | 39 | 1019.4 |
| 20260903173815 | 66 | 40 | 0.0 | 2.0 | 0.00 | 0.00 | 0.00 | 39 | 1019.2 |
| 20260903173715 | 66 | 18 | 2.0 | 5.0 | 0.00 | 0.00 | 0.00 | 39 | 1019.3 |
| 20260903172714 | 66 | 121 | 1.0 | 5.0 | 0.00 | 0.00 | 0.00 | 40 | 1019.3 |
| 20260903171716 | 66 | 135 | 0.0 | 2.0 | 0.00 | 0.00 | 0.00 | 40 | 1019.3 |
| 20260903170716 | 65 | 360 | 0.0 | 0.0 | 0.00 | 0.00 | 0.00 | 41 | 1019.4 |
| 20260903165714 | 65 | 157 | 0.0 | 2.0 | 0.00 | 0.00 | 0.00 | 41 | 1019.5 |
| 20260903164716 | 64 | 90 | 0.0 | 1.0 | 0.00 | 0.00 | 0.00 | 43 | 1019.6 |
| 20260903163715 | 64 | 45 | 0.0 | 1.0 | 0.00 | 0.00 | 0.00 | 45 | 1019.5 |
| 20260903162715 | 63 | 45 | 0.0 | 1.0 | 0.00 | 0.00 | 0.00 | 47 | 1019.6 |
| 20260903161714 | 62 | 247 | 0.0 | 0.0 | 0.00 | 0.00 | 0.00 | 51 | 1019.7 |
| 20260903160715 | 60 | 247 | 0.0 | 0.0 | 0.00 | 0.00 | 0.00 | 59 | 1019.7 |
| 20260903155715 | 57 | 247 | 0.0 | 0.0 | 0.00 | 0.00 | 0.00 | 63 | 1019.9 |
| 20260903155616 | 56 | 247 | 0.0 | 0.0 | 0.00 | 0.00 | 0.00 | 63 | 1019.9 |
| 20260903154715 | 54 | 247 | 0.0 | 0.0 | 0.00 | 0.00 | 0.00 | 65 | 1019.9 |
| 20260903154617 | 54 | 247 | 0.0 | 0.0 | 0.00 | 0.00 | 0.00 | 65 | 1020.0 |
| 20260903153616 | 51 | 247 | 0.0 | 0.0 | 0.00 | 0.00 | 0.00 | 70 | 1020.1 |
| 20260903152617 | 49 | 247 | 0.0 | 0.0 | 0.00 | 0.00 | 0.00 | 75 | 1020.0 |
| 20260903152515 | 49 | 247 | 0.0 | 0.0 | 0.00 | 0.00 | 0.00 | 76 | 1020.1 |
| 20260903151613 | 47 | 247 | 0.0 | 0.0 | 0.00 | 0.00 | 0.00 | 79 | 1020.0 |
| 20260903150517 | 44 | 247 | 0.0 | 0.0 | 0.00 | 0.00 | 0.00 | 84 | 1019.9 |
| 20260903145516 | 40 | 247 | 0.0 | 0.0 | 0.00 | 0.00 | 0.00 | 91 | 1019.8 |
| 20260903144514 | 37 | 247 | 0.0 | 0.0 | 0.00 | 0.00 | 0.00 | 95 | 1019.6 |
| 20260903143515 | 36 | 247 | 0.0 | 0.0 | 0.00 | 0.00 | 0.00 | 96 | 1019.5 |
| 20260903142615 | 36 | 247 | 0.0 | 0.0 | 0.00 | 0.00 | 0.00 | 96 | 1019.5 |
| 20260903142516 | 35 | 247 | 0.0 | 0.0 | 0.00 | 0.00 | 0.00 | 96 | 1019.5 |
| 20260903141515 | 35 | 247 | 0.0 | 0.0 | 0.00 | 0.00 | 0.00 | 95 | 1019.3 |
| 20260903140515 | 35 | 247 | 0.0 | 0.0 | 0.00 | 0.00 | 0.00 | 96 | 1019.4 |
| 20260903135513 | 35 | 247 | 0.0 | 0.0 | 0.00 | 0.00 | 0.00 | 96 | 1019.2 |
| 20260903134515 | 35 | 247 | 0.0 | 0.0 | 0.00 | 0.00 | 0.00 | 94 | 1019.1 |
| 20260903134416 | 35 | 247 | 0.0 | 0.0 | 0.00 | 0.00 | 0.00 | 95 | 1019.2 |
| 20260903133514 | 35 | 247 | 0.0 | 0.0 | 0.00 | 0.00 | 0.00 | 94 | 1019.0 |
| 20260903132516 | 35 | 247 | 0.0 | 0.0 | 0.00 | 0.00 | 0.00 | 94 | 1019.1 |
| 20260903131515 | 35 | 247 | 0.0 | 0.0 | 0.00 | 0.00 | 0.00 | 95 | 1019.1 |
| 20260903130516 | 35 | 247 | 0.0 | 0.0 | 0.00 | 0.00 | 0.00 | 95 | 1019.1 |
| 20260903125514 | 35 | 247 | 0.0 | 0.0 | 0.00 | 0.00 | 0.00 | 93 | 1019.0 |
| 20260903124516 | 35 | 247 | 0.0 | 0.0 | 0.00 | 0.00 | 0.00 | 93 | 1019.2 |
| 20260903123517 | 35 | 247 | 0.0 | 0.0 | 0.00 | 0.00 | 0.00 | 93 | 1019.1 |
| 20260903122516 | 35 | 247 | 0.0 | 0.0 | 0.00 | 0.00 | 0.00 | 93 | 1019.1 |
| 20260903121513 | 36 | 247 | 0.0 | 0.0 | 0.00 | 0.00 | 0.00 | 93 | 1019.1 |
| 20260903121415 | 36 | 247 | 0.0 | 0.0 | 0.00 | 0.00 | 0.00 | 92 | 1019.2 |
| 20260903120414 | 36 | 247 | 0.0 | 0.0 | 0.00 | 0.00 | 0.00 | 93 | 1019.1 |
| 20260903115314 | 36 | 247 | 0.0 | 0.0 | 0.00 | 0.00 | 0.00 | 93 | 1019.2 |
| 20260903114413 | 36 | 247 | 0.0 | 0.0 | 0.00 | 0.00 | 0.00 | 93 | 1019.1 |
| 20260903114314 | 36 | 247 | 0.0 | 0.0 | 0.00 | 0.00 | 0.00 | 93 | 1019.2 |
| 20260903113315 | 36 | 247 | 0.0 | 0.0 | 0.00 | 0.00 | 0.00 | 93 | 1019.2 |
| 20260903111216 | 36 | 247 | 0.0 | 0.0 | 0.00 | 0.00 | 0.00 | 92 | 1019.3 |
| 20260903110313 | 36 | 247 | 0.0 | 0.0 | 0.00 | 0.00 | 0.00 | 92 | 1019.5 |
| 20260903104315 | 36 | 247 | 0.0 | 0.0 | 0.00 | 0.00 | 0.00 | 93 | 1019.5 |
| 20260903102314 | 37 | 247 | 0.0 | 0.0 | 0.00 | 0.00 | 0.00 | 93 | 1019.6 |
| 20260903101315 | 37 | 247 | 0.0 | 0.0 | 0.00 | 0.00 | 0.00 | 91 | 1019.6 |
| 20260903100313 | 37 | 247 | 0.0 | 0.0 | 0.00 | 0.00 | 0.00 | 92 | 1019.7 |
| 20260903095413 | 37 | 247 | 0.0 | 0.0 | 0.00 | 0.00 | 0.00 | 92 | 1019.7 |
| 20260903093415 | 37 | 247 | 0.0 | 0.0 | 0.00 | 0.00 | 0.00 | 92 | 1019.9 |
| 20260903093316 | 37 | 247 | 0.0 | 0.0 | 0.00 | 0.00 | 0.00 | 91 | 1019.9 |
| 20260903092214 | 37 | 247 | 0.0 | 0.0 | 0.00 | 0.00 | 0.00 | 91 | 1020.0 |
| 20260903091215 | 38 | 247 | 0.0 | 0.0 | 0.00 | 0.00 | 0.00 | 91 | 1020.0 |
| 20260903090214 | 38 | 247 | 0.0 | 0.0 | 0.00 | 0.00 | 0.00 | 90 | 1020.1 |
| 20260903085216 | 38 | 247 | 0.0 | 0.0 | 0.00 | 0.00 | 0.00 | 90 | 1020.2 |
| 20260903085114 | 38 | 247 | 0.0 | 0.0 | 0.00 | 0.00 | 0.00 | 90 | 1020.2 |
| 20260903084114 | 38 | 247 | 0.0 | 0.0 | 0.00 | 0.00 | 0.00 | 90 | 1020.2 |
| 20260903083114 | 38 | 247 | 0.0 | 0.0 | 0.00 | 0.00 | 0.00 | 89 | 1020.2 |
| 20260903083015 | 38 | 247 | 0.0 | 0.0 | 0.00 | 0.00 | 0.00 | 89 | 1020.2 |
| 20260903082015 | 38 | 247 | 0.0 | 0.0 | 0.00 | 0.00 | 0.00 | 88 | 1020.3 |
| 20260903081015 | 39 | 247 | 0.0 | 0.0 | 0.00 | 0.00 | 0.00 | 88 | 1020.3 |
| 20260903080915 | 39 | 247 | 0.0 | 0.0 | 0.00 | 0.00 | 0.00 | 87 | 1020.2 |
| 20260903075914 | 39 | 247 | 0.0 | 0.0 | 0.00 | 0.00 | 0.00 | 88 | 1020.4 |
| 20260903074914 | 39 | 247 | 0.0 | 0.0 | 0.00 | 0.00 | 0.00 | 88 | 1020.3 |
| 20260903073917 | 39 | 247 | 0.0 | 0.0 | 0.00 | 0.00 | 0.00 | 86 | 1020.4 |
| 20260903072915 | 39 | 247 | 0.0 | 0.0 | 0.00 | 0.00 | 0.00 | 87 | 1020.4 |
| 20260903071914 | 39 | 247 | 0.0 | 0.0 | 0.00 | 0.00 | 0.00 | 87 | 1020.6 |
| 20260903065919 | 40 | 247 | 0.0 | 0.0 | 0.00 | 0.00 | 0.00 | 85 | 1020.6 |
| 20260903063917 | 40 | 247 | 0.0 | 0.0 | 0.00 | 0.00 | 0.00 | 84 | 1020.8 |
| 20260903062920 | 41 | 247 | 0.0 | 0.0 | 0.00 | 0.00 | 0.00 | 82 | 1020.7 |
| 20260903062017 | 41 | 247 | 0.0 | 0.0 | 0.00 | 0.00 | 0.00 | 83 | 1020.8 |
| 20260903061019 | 41 | 247 | 0.0 | 0.0 | 0.00 | 0.00 | 0.00 | 82 | 1020.8 |
| 20260903055018 | 42 | 247 | 0.0 | 0.0 | 0.00 | 0.00 | 0.00 | 80 | 1020.9 |
| 20260903054919 | 42 | 247 | 0.0 | 0.0 | 0.00 | 0.00 | 0.00 | 81 | 1020.9 |
| 20260903053918 | 42 | 247 | 0.0 | 0.0 | 0.00 | 0.00 | 0.00 | 80 | 1021.2 |
| 20260903052918 | 43 | 247 | 0.0 | 0.0 | 0.00 | 0.00 | 0.00 | 79 | 1021.2 |
| 20260903051017 | 44 | 247 | 0.0 | 0.0 | 0.00 | 0.00 | 0.00 | 77 | 1021.4 |
| 20260903045017 | 44 | 247 | 0.0 | 0.0 | 0.00 | 0.00 | 0.00 | 75 | 1021.7 |
| 20260903044020 | 45 | 247 | 0.0 | 0.0 | 0.00 | 0.00 | 0.00 | 75 | 1021.7 |
| 20260903043918 | 45 | 247 | 0.0 | 0.0 | 0.00 | 0.00 | 0.00 | 74 | 1021.7 |
| 20260903043017 | 46 | 247 | 0.0 | 0.0 | 0.00 | 0.00 | 0.00 | 73 | 1021.4 |
| 20260903042017 | 46 | 247 | 0.0 | 0.0 | 0.00 | 0.00 | 0.00 | 73 | 1021.4 |
| 20260903041117 | 46 | 247 | 0.0 | 0.0 | 0.00 | 0.00 | 0.00 | 72 | 1021.4 |
| 20260903040117 | 47 | 247 | 0.0 | 0.0 | 0.00 | 0.00 | 0.00 | 72 | 1021.4 |
| 20260903040017 | 47 | 247 | 0.0 | 0.0 | 0.00 | 0.00 | 0.00 | 71 | 1021.4 |
| 20260903034017 | 48 | 247 | 0.0 | 0.0 | 0.00 | 0.00 | 0.00 | 70 | 1021.1 |
| 20260903032018 | 49 | 247 | 0.0 | 0.0 | 0.00 | 0.00 | 0.00 | 68 | 1020.8 |
| 20260903031919 | 49 | 247 | 0.0 | 0.0 | 0.00 | 0.00 | 0.00 | 68 | 1020.8 |
| 20260903031820 | 50 | 247 | 0.0 | 0.0 | 0.00 | 0.00 | 0.00 | 68 | 1020.9 |
| 20260903030918 | 50 | 247 | 0.0 | 0.0 | 0.00 | 0.00 | 0.00 | 68 | 1020.9 |
| 20260903025916 | 51 | 247 | 0.0 | 0.0 | 0.00 | 0.00 | 0.00 | 67 | 1020.8 |
| 20260903024917 | 52 | 247 | 0.0 | 0.0 | 0.00 | 0.00 | 0.00 | 65 | 1020.8 |
| 20260903024818 | 52 | 247 | 0.0 | 0.0 | 0.00 | 0.00 | 0.00 | 64 | 1020.7 |
| 20260903023818 | 53 | 247 | 0.0 | 0.0 | 0.00 | 0.00 | 0.00 | 63 | 1020.7 |
| 20260903022817 | 54 | 247 | 0.0 | 0.0 | 0.00 | 0.00 | 0.00 | 61 | 1020.8 |
| 20260903020817 | 56 | 247 | 0.0 | 0.0 | 0.00 | 0.00 | 0.00 | 59 | 1020.8 |
| 20260903015817 | 57 | 247 | 0.0 | 0.0 | 0.00 | 0.00 | 0.00 | 56 | 1021.0 |
| 20260903015718 | 57 | 247 | 0.0 | 0.0 | 0.00 | 0.00 | 0.00 | 56 | 1020.9 |
| 20260903015617 | 57 | 249 | 0.0 | 0.0 | 0.00 | 0.00 | 0.00 | 56 | 1020.8 |
| 20260903014616 | 58 | 292 | 0.0 | 0.0 | 0.00 | 0.00 | 0.00 | 53 | 1020.9 |
| 20260903013617 | 60 | 298 | 0.0 | 0.0 | 0.00 | 0.00 | 0.00 | 50 | 1020.8 |
| 20260903012618 | 61 | 225 | 0.0 | 0.0 | 0.00 | 0.00 | 0.00 | 48 | 1021.0 |
| 20260903011617 | 62 | 208 | 1.0 | 3.0 | 0.00 | 0.00 | 0.00 | 46 | 1020.9 |
| 20260903011517 | 62 | 180 | 1.0 | 3.0 | 0.00 | 0.00 | 0.00 | 45 | 1020.9 |
| 20260903010616 | 64 | 180 | 0.0 | 1.0 | 0.00 | 0.00 | 0.00 | 43 | 1020.8 |
| 20260903005618 | 64 | 178 | 0.0 | 0.0 | 0.00 | 0.00 | 0.00 | 42 | 1020.8 |
| 20260903004616 | 65 | 200 | 1.0 | 4.0 | 0.00 | 0.00 | 0.00 | 43 | 1020.8 |
| 20260903003633 | 65 | 166 | 1.0 | 7.0 | 0.00 | 0.00 | 0.00 | 41 | 1020.8 |
| 20260903002616 | 66 | 180 | 2.0 | 3.0 | 0.00 | 0.00 | 0.00 | 40 | 1020.9 |
| 20260903001617 | 67 | 214 | 0.0 | 1.0 | 0.00 | 0.00 | 0.00 | 39 | 1020.8 |
| 20260902235617 | 67 | 219 | 1.0 | 7.0 | 0.00 | 0.00 | 0.00 | 39 | 1020.9 |
| 20260902234617 | 67 | 197 | 1.0 | 5.0 | 0.00 | 0.00 | 0.00 | 39 | 1020.9 |
| 20260902234517 | 67 | 198 | 3.0 | 7.0 | 0.00 | 0.00 | 0.00 | 38 | 1020.9 |
| 20260902233518 | 68 | 237 | 3.0 | 7.0 | 0.00 | 0.00 | 0.00 | 39 | 1020.8 |
| 20260902232518 | 68 | 203 | 1.0 | 4.0 | 0.00 | 0.00 | 0.00 | 38 | 1020.9 |
| 20260902231519 | 68 | 250 | 2.0 | 6.0 | 0.00 | 0.00 | 0.00 | 36 | 1020.9 |
| 20260902230616 | 69 | 246 | 3.0 | 9.0 | 0.00 | 0.00 | 0.00 | 36 | 1021.0 |
| 20260902225617 | 68 | 270 | 1.0 | 2.0 | 0.00 | 0.00 | 0.00 | 35 | 1021.0 |
| 20260902224620 | 69 | 206 | 0.0 | 3.0 | 0.00 | 0.00 | 0.00 | 37 | 1021.1 |
| 20260902223616 | 68 | 273 | 1.0 | 2.0 | 0.00 | 0.00 | 0.00 | 37 | 1021.2 |
| 20260902223518 | 68 | 234 | 0.0 | 4.0 | 0.00 | 0.00 | 0.00 | 36 | 1021.2 |